createdAt,value
2019-02-27T00:12:59.586Z,160.25
2019-02-27T00:43:03.432Z,175.47
2019-02-27T01:13:07.160Z,201.65
2019-02-27T01:43:10.832Z,228.42
2019-02-27T02:13:17.921Z,148.30
2019-02-27T02:43:30.630Z,184.90
2019-02-27T03:43:47.757Z,192.28
2019-02-27T04:13:51.530Z,187.97
2019-02-27T04:43:55.647Z,215.77
2019-02-27T05:13:59.360Z,192.68
2019-02-27T05:44:03.117Z,164.15
2019-02-27T06:14:06.803Z,128.57
2019-02-27T06:44:10.514Z,162.37
2019-02-27T07:14:14.246Z,156.57
2019-02-27T07:44:17.961Z,225.45
2019-02-27T08:14:21.739Z,243.67
2019-02-27T08:44:25.478Z,327.20
2019-02-27T09:14:29.216Z,284.40
2019-02-27T09:44:36.398Z,185.52
2019-02-27T10:14:38.265Z,122.95
2019-02-27T10:44:41.961Z,81.87
2019-02-27T11:14:45.663Z,61.60
2019-02-27T11:44:50.195Z,26.95
2019-02-27T12:14:53.997Z,20.77
2019-02-27T12:44:58.001Z,6.03
2019-02-27T13:15:04.454Z,47.25
2019-02-27T13:45:12.660Z,12.25
2019-02-27T14:15:18.066Z,6.70
2019-02-27T14:45:23.547Z,10.28
2019-02-27T15:15:31.625Z,38.02
2019-02-27T15:45:35.374Z,24.27
2019-02-27T16:15:39.073Z,42.93
2019-02-27T16:45:42.858Z,63.70
2019-02-27T17:15:46.584Z,81.65
2019-02-27T17:45:50.337Z,112.60
2019-02-27T18:15:54.083Z,109.17
2019-02-27T18:45:57.821Z,101.12
2019-02-27T19:16:01.558Z,99.32
2019-02-27T19:46:06.993Z,105.92
2019-02-27T20:16:12.413Z,102.67
2019-02-27T20:46:16.151Z,139.88
2019-02-27T21:16:19.915Z,118.37
2019-02-27T21:46:23.904Z,100.27
2019-02-27T22:16:30.509Z,112.10
2019-02-27T22:46:32.972Z,81.60
2019-02-27T23:16:36.663Z,83.55
2019-02-27T23:46:48.770Z,75.65
